Aérodrome :
LOGIN :

S'inscrire | Disclaimer

   EN    FR    IT 

 










Légende :    VFR   VFR Marginal   IFR   IFR Intensif   IFR Très Intensif
Visi : 
Plafond : 
>= 8 km
>= 3000ft
5 à 8 km
1000 à 3000 ft
1500m à 5 km
500 à 1000 ft
800 à 1500m
200 à 500 ft
< 800m
< 200 ft
Symboles :   Orages  Brouillard  Fortes neiges  Fortes précipitations  Vent > 20 kt
SIGMETs :   Divers  Orages  Givrage  Turbulence  Onde Orograph.  Cendres Volcan.






- Altitude de l'aérodrome : 24 ft
- Code IATA : AXD


LGAL - Dimokritos

DERNIER METAR :
  • 150720Z VRB03KT 9999 FEW010 FEW018TCU SCT020 15/14 Q1016

METARs EXPIRÉS :
  • 150650Z VRB03KT 9999 FEW010 FEW018TCU SCT020 15/14 Q1016
  • 150620Z 00000KT 9999 -RA FEW010 FEW018TCU SCT020 15/14 Q1015
  • 150550Z 00000KT 9999 -RA FEW010 FEW018TCU SCT020 15/14 Q1015
  • 150520Z VRB03KT 9999 -RA FEW010 FEW018CB SCT020 15/14 Q1015
  • 150450Z VRB03KT 9999 FEW010 FEW018CB SCT020 15/14 Q1015

TAF TAF LGAL
Valide du 15 à 06h jusqu'au 15 à 15h UTC


150500Z 1506/1515 VRB05KT 9999 FEW010 SCT025
PROB30
TEMPO 1506/1512 5000 RA SCT010 FEW018TCU BKN020
PROB30
TEMPO 1506/1509 5000 TSRA SCT008 FEW018CB BKN020
BECMG 1507/1509 18010KT



MET'MAP, la Météo Aéronautique d'un coup d'oeil ! - Copyright ORBIFLY Décembre 2007 - Disclaimer

ORBIFLY MET'MAP TEAM :

Programmation & Développement : Alexandra Zaïnal
Conception & Développement : Baudouin d'Aumeries
Co-Programmation & Développement : Marc-Olivier Méhu
Soutien technique & logistique : Manuel Goepfert

Contact : metmap@orbifly.com




SOURCES & CREDITS :

   NOAA